Shen Hang 935 — BXGY — position and weather

sailwx.info

Track history (hours):
 
Tides and Currents Weather Stations Pressure Air Temp Water Temp Dewpoint Dewpoint Depression Visibility Wind Speed Wind Dir Waves Ship Positions

Shen Hang 935

Last reported at 2014-Oct-22 11:13 UTC. Time now 2014-Oct-23 11:04 UTC.
Position N 22°18' E 114°13'.

Length 49 m; draft 2.8 m.

Type: Ship. MMSI: 412466550.

Date/timePositionNaut miles runAvg speedWind from/ knotsBaromVisibWave heightAir tempDewpointWater temp
2014-Oct-22 11:13N 22°18' E 114°13'4 5.0
2014-Oct-22 10:25N 22°18' E 114°09'17 3.4
2014-Oct-22 05:31N 22°26' E 113°53'  
2014-Oct-18 17:33N 22°18' E 114°09'3 0.2
2014-Oct-17 23:32N 22°18' E 114°13'21 1.2
2014-Oct-17 05:19N 22°27' E 113°53'19 1.0
2014-Oct-16 11:08N 22°18' E 114°10'3 0.2
2014-Oct-15 19:33N 22°18' E 114°13'59 5.8
2014-Oct-15 09:27N 23°02' E 113°31'5 5.0
2014-Oct-15 08:32N 23°06' E 113°27'0 0.0
2014-Oct-15 07:33N 23°06' E 113°27'1 0.5
2014-Oct-15 06:33N 23°05' E 113°27'0 0.0
2014-Oct-15 05:33N 23°05' E 113°27'0 0.0
2014-Oct-15 04:33N 23°05' E 113°27'0 0.0
2014-Oct-15 03:33N 23°05' E 113°27'0 0.0
2014-Oct-15 02:33N 23°05' E 113°27'1 0.5
2014-Oct-15 01:33N 23°06' E 113°27'0 0.1
2014-Oct-15 00:28N 23°06' E 113°27'0 0.2
2014-Oct-14 23:28N 23°05' E 113°27'0 0.1
2014-Oct-14 22:32N 23°05' E 113°27'0 0.0
2014-Oct-14 21:29N 23°05' E 113°27'0 0.0
2014-Oct-14 20:33N 23°05' E 113°27'0 0.1
2014-Oct-14 19:32N 23°05' E 113°27'0 0.2
2014-Oct-14 18:32N 23°05' E 113°27'0 0.0
2014-Oct-14 17:33N 23°06' E 113°27'0 0.0
2014-Oct-14 16:33N 23°06' E 113°27'0 0.1
2014-Oct-14 15:33N 23°06' E 113°27'0 0.4
2014-Oct-14 14:33N 23°05' E 113°27'0 0.1
2014-Oct-14 13:33N 23°05' E 113°27'0 0.1
2014-Oct-14 12:33N 23°05' E 113°27'2 2.1
2014-Oct-14 11:33N 23°06' E 113°25'0 0.1
2014-Oct-14 10:33N 23°06' E 113°25'0 0.0
2014-Oct-14 09:30N 23°06' E 113°25'0 0.1
2014-Oct-14 08:33N 23°06' E 113°25'1 1.0
2014-Oct-14 07:33N 23°06' E 113°26'6 6.5
2014-Oct-14 06:33N 23°01' E 113°31'6 0.3
2014-Oct-13 11:15N 22°56' E 113°33'5 7.9
2014-Oct-13 10:33N 23°01' E 113°31'7 6.7
2014-Oct-13 09:33N 23°06' E 113°26'1 0.8
2014-Oct-13 08:33N 23°06' E 113°25'0 0.0
2014-Oct-13 07:33N 23°06' E 113°25'0 0.0
2014-Oct-13 06:33N 23°06' E 113°25'0 0.0
2014-Oct-13 05:33N 23°06' E 113°25'0 0.1
2014-Oct-13 04:33N 23°06' E 113°25'0 0.0
2014-Oct-13 03:32N 23°06' E 113°25'0 0.0
2014-Oct-13 02:33N 23°06' E 113°25'0 0.0
2014-Oct-13 01:32N 23°06' E 113°25'0 0.0
2014-Oct-13 00:32N 23°06' E 113°25'0 0.0
2014-Oct-12 23:33N 23°06' E 113°25'0 0.0
2014-Oct-12 22:33N 23°06' E 113°25'0 0.0
2014-Oct-12 21:33N 23°06' E 113°25'0 0.0
2014-Oct-12 20:33N 23°06' E 113°25'0 0.0
2014-Oct-12 19:29N 23°06' E 113°25'0 0.0
2014-Oct-12 18:33N 23°06' E 113°25'2 1.7
2014-Oct-12 17:33N 23°06' E 113°27'7 6.7
2014-Oct-12 16:33N 23°00' E 113°31'8 7.4
2014-Oct-12 15:28N 22°53' E 113°34'  
Track history (hours):
 
Tides and Currents Weather Stations Pressure Air Temp Water Temp Dewpoint Dewpoint Depression Visibility Wind Speed Wind Dir Waves Ship Positions

Shen Hang 935

Last reported at 2014-Oct-22 11:13 UTC. Time now 2014-Oct-23 11:04 UTC.
Position N 22°18' E 114°13'.

Length 49 m; draft 2.8 m.

Type: Ship. MMSI: 412466550.

Date/timePositionNaut miles runAvg speedWind from/ knotsBaromVisibWave heightAir tempDewpointWater temp
2014-Oct-22 11:13N 22°18' E 114°13'4 5.0
2014-Oct-22 10:25N 22°18' E 114°09'17 3.4
2014-Oct-22 05:31N 22°26' E 113°53'  
2014-Oct-18 17:33N 22°18' E 114°09'3 0.2
2014-Oct-17 23:32N 22°18' E 114°13'21 1.2
2014-Oct-17 05:19N 22°27' E 113°53'19 1.0
2014-Oct-16 11:08N 22°18' E 114°10'3 0.2
2014-Oct-15 19:33N 22°18' E 114°13'59 5.8
2014-Oct-15 09:27N 23°02' E 113°31'5 5.0
2014-Oct-15 08:32N 23°06' E 113°27'0 0.0
2014-Oct-15 07:33N 23°06' E 113°27'1 0.5
2014-Oct-15 06:33N 23°05' E 113°27'0 0.0
2014-Oct-15 05:33N 23°05' E 113°27'0 0.0
2014-Oct-15 04:33N 23°05' E 113°27'0 0.0
2014-Oct-15 03:33N 23°05' E 113°27'0 0.0
2014-Oct-15 02:33N 23°05' E 113°27'1 0.5
2014-Oct-15 01:33N 23°06' E 113°27'0 0.1
2014-Oct-15 00:28N 23°06' E 113°27'0 0.2
2014-Oct-14 23:28N 23°05' E 113°27'0 0.1
2014-Oct-14 22:32N 23°05' E 113°27'0 0.0
2014-Oct-14 21:29N 23°05' E 113°27'0 0.0
2014-Oct-14 20:33N 23°05' E 113°27'0 0.1
2014-Oct-14 19:32N 23°05' E 113°27'0 0.2
2014-Oct-14 18:32N 23°05' E 113°27'0 0.0
2014-Oct-14 17:33N 23°06' E 113°27'0 0.0
2014-Oct-14 16:33N 23°06' E 113°27'0 0.1
2014-Oct-14 15:33N 23°06' E 113°27'0 0.4
2014-Oct-14 14:33N 23°05' E 113°27'0 0.1
2014-Oct-14 13:33N 23°05' E 113°27'0 0.1
2014-Oct-14 12:33N 23°05' E 113°27'2 2.1
2014-Oct-14 11:33N 23°06' E 113°25'0 0.1
2014-Oct-14 10:33N 23°06' E 113°25'0 0.0
2014-Oct-14 09:30N 23°06' E 113°25'0 0.1
2014-Oct-14 08:33N 23°06' E 113°25'1 1.0
2014-Oct-14 07:33N 23°06' E 113°26'6 6.5
2014-Oct-14 06:33N 23°01' E 113°31'6 0.3
2014-Oct-13 11:15N 22°56' E 113°33'5 7.9
2014-Oct-13 10:33N 23°01' E 113°31'7 6.7
2014-Oct-13 09:33N 23°06' E 113°26'1 0.8
2014-Oct-13 08:33N 23°06' E 113°25'0 0.0
2014-Oct-13 07:33N 23°06' E 113°25'0 0.0
2014-Oct-13 06:33N 23°06' E 113°25'0 0.0
2014-Oct-13 05:33N 23°06' E 113°25'0 0.1
2014-Oct-13 04:33N 23°06' E 113°25'0 0.0
2014-Oct-13 03:32N 23°06' E 113°25'0 0.0
2014-Oct-13 02:33N 23°06' E 113°25'0 0.0
2014-Oct-13 01:32N 23°06' E 113°25'0 0.0
2014-Oct-13 00:32N 23°06' E 113°25'0 0.0
2014-Oct-12 23:33N 23°06' E 113°25'0 0.0
2014-Oct-12 22:33N 23°06' E 113°25'0 0.0
2014-Oct-12 21:33N 23°06' E 113°25'0 0.0
2014-Oct-12 20:33N 23°06' E 113°25'0 0.0
2014-Oct-12 19:29N 23°06' E 113°25'0 0.0
2014-Oct-12 18:33N 23°06' E 113°25'2 1.7
2014-Oct-12 17:33N 23°06' E 113°27'7 6.7
2014-Oct-12 16:33N 23°00' E 113°31'8 7.4
2014-Oct-12 15:28N 22°53' E 113°34'  

Dump ship's entire track history